createdAt,value
2017-11-30T00:00:01.078Z,61.40
2017-11-30T00:02:28.731Z,60.12
2017-11-30T00:04:57.174Z,64.53
2017-11-30T00:07:24.745Z,69.65
2017-11-30T00:09:52.394Z,73.18
2017-11-30T00:12:20.129Z,65.22
2017-11-30T00:14:47.793Z,68.87
2017-11-30T00:17:16.140Z,63.70
2017-11-30T00:19:43.784Z,64.10
2017-11-30T00:22:11.440Z,58.85
2017-11-30T00:24:39.040Z,65.78
2017-11-30T00:27:06.682Z,65.50
2017-11-30T00:29:35.247Z,64.20
2017-11-30T00:32:02.978Z,55.58
2017-11-30T00:34:30.589Z,58.87
2017-11-30T00:37:03.965Z,59.53
2017-11-30T00:39:31.602Z,61.67
2017-11-30T00:41:59.225Z,77.43
2017-11-30T00:44:41.531Z,70.00
2017-11-30T00:47:09.130Z,69.80
2017-11-30T00:49:36.725Z,68.12
2017-11-30T00:52:04.317Z,58.38
2017-11-30T00:54:31.903Z,75.78
2017-11-30T00:57:00.326Z,59.60
2017-11-30T00:59:27.967Z,63.13
2017-11-30T01:01:55.635Z,59.40
2017-11-30T01:04:23.279Z,60.60
2017-11-30T01:06:51.009Z,62.45
2017-11-30T01:09:20.389Z,59.17
2017-11-30T01:11:48.037Z,63.90
2017-11-30T01:14:16.647Z,54.92
2017-11-30T01:16:44.300Z,65.20
2017-11-30T01:19:11.915Z,65.80
2017-11-30T01:21:39.562Z,60.17
2017-11-30T01:24:07.202Z,60.92
2017-11-30T01:26:35.260Z,66.85
2017-11-30T01:29:02.847Z,65.22
2017-11-30T01:31:31.443Z,64.50
2017-11-30T01:34:00.167Z,70.47
2017-11-30T01:36:28.614Z,61.58
2017-11-30T01:38:56.267Z,71.32
2017-11-30T01:41:24.643Z,72.32
2017-11-30T01:43:52.246Z,60.12
2017-11-30T01:46:19.853Z,58.97
2017-11-30T01:48:47.496Z,64.85
2017-11-30T01:51:15.085Z,64.95
2017-11-30T01:53:43.083Z,77.72
2017-11-30T01:56:10.725Z,66.82
2017-11-30T01:58:38.409Z,60.45
2017-11-30T02:01:06.090Z,67.43
2017-11-30T02:03:33.746Z,68.25
2017-11-30T02:06:01.388Z,77.20
2017-11-30T02:08:28.987Z,71.28
2017-11-30T02:10:56.603Z,62.88
2017-11-30T02:13:24.270Z,63.17
2017-11-30T02:15:51.903Z,55.25
2017-11-30T02:18:20.257Z,57.55
2017-11-30T02:20:47.934Z,59.25
2017-11-30T02:23:15.612Z,69.20
2017-11-30T02:25:44.035Z,51.17
2017-11-30T02:28:11.767Z,69.18
2017-11-30T02:30:39.462Z,74.57
2017-11-30T02:33:07.826Z,61.67
2017-11-30T02:35:36.360Z,59.80
2017-11-30T02:38:04.083Z,56.13
2017-11-30T02:40:31.800Z,59.95
2017-11-30T02:42:59.811Z,55.90
2017-11-30T02:45:27.545Z,68.60
2017-11-30T02:47:56.757Z,61.70
2017-11-30T02:50:24.479Z,67.37
2017-11-30T02:52:52.132Z,61.88
2017-11-30T02:55:19.805Z,59.60
2017-11-30T02:57:47.483Z,67.28
2017-11-30T03:00:15.104Z,66.60
2017-11-30T03:02:42.895Z,70.78
2017-11-30T03:05:10.555Z,57.17
2017-11-30T03:07:38.361Z,60.47
2017-11-30T03:10:06.726Z,56.58
2017-11-30T03:12:35.344Z,58.08
2017-11-30T03:15:03.110Z,71.25
2017-11-30T03:17:30.761Z,70.90
2017-11-30T03:19:58.706Z,65.03
2017-11-30T03:22:26.379Z,66.18
2017-11-30T03:24:54.636Z,54.97
2017-11-30T03:27:23.018Z,55.05
2017-11-30T03:29:51.440Z,56.50
2017-11-30T03:32:19.144Z,62.60
2017-11-30T03:34:46.777Z,63.08
2017-11-30T03:37:14.523Z,63.25
2017-11-30T03:39:42.190Z,69.35
2017-11-30T03:42:10.993Z,84.20
2017-11-30T03:44:38.674Z,89.32
2017-11-30T03:47:06.318Z,67.85
2017-11-30T03:49:33.948Z,82.65
2017-11-30T03:52:01.639Z,89.25
2017-11-30T03:54:29.275Z,95.43
2017-11-30T03:56:57.793Z,86.37
2017-11-30T03:59:26.214Z,84.25
2017-11-30T04:01:53.882Z,91.30
2017-11-30T04:04:21.532Z,96.10
2017-11-30T04:06:49.159Z,82.40
2017-11-30T04:09:16.798Z,75.10
2017-11-30T04:11:44.375Z,95.95
2017-11-30T04:14:11.999Z,78.53
2017-11-30T04:16:39.884Z,94.78
2017-11-30T04:19:07.526Z,75.05
2017-11-30T04:21:35.174Z,82.03
2017-11-30T04:24:02.787Z,77.20
2017-11-30T04:26:31.010Z,74.05
2017-11-30T04:28:58.670Z,75.87
2017-11-30T04:31:26.371Z,78.57
2017-11-30T04:33:53.949Z,73.07
2017-11-30T04:36:21.557Z,70.32
2017-11-30T04:38:49.181Z,70.37
2017-11-30T04:41:17.116Z,67.75
2017-11-30T04:43:45.066Z,81.07
2017-11-30T04:46:12.659Z,81.82
2017-11-30T04:48:40.284Z,77.10
2017-11-30T04:51:08.108Z,62.35
2017-11-30T04:53:35.713Z,72.32
2017-11-30T04:56:03.492Z,62.25
2017-11-30T04:58:31.361Z,78.50
2017-11-30T05:00:59.119Z,84.37
2017-11-30T05:03:26.729Z,81.90
2017-11-30T05:05:54.432Z,78.35
2017-11-30T05:08:22.148Z,81.37
2017-11-30T05:10:49.918Z,63.97
2017-11-30T05:13:17.529Z,81.32
2017-11-30T05:15:45.184Z,81.87
2017-11-30T05:18:13.726Z,86.53
2017-11-30T05:20:42.132Z,69.20
2017-11-30T05:23:10.929Z,75.30
2017-11-30T05:25:39.064Z,72.55
2017-11-30T05:28:06.705Z,74.95
2017-11-30T05:30:34.696Z,68.18
2017-11-30T05:33:02.362Z,79.70
2017-11-30T05:35:29.986Z,77.68
2017-11-30T05:37:58.433Z,70.07
2017-11-30T05:40:26.056Z,88.72
2017-11-30T05:42:53.654Z,73.25
2017-11-30T05:45:21.288Z,75.28
2017-11-30T05:47:48.854Z,74.40
2017-11-30T05:50:16.532Z,72.78
2017-11-30T05:52:44.180Z,90.85
2017-11-30T05:55:13.365Z,84.43
2017-11-30T05:57:40.933Z,93.20
2017-11-30T06:00:08.706Z,87.60
2017-11-30T06:02:36.375Z,113.45
2017-11-30T06:05:04.027Z,80.47
2017-11-30T06:07:32.526Z,87.32
2017-11-30T06:10:00.163Z,87.28
2017-11-30T06:12:27.834Z,75.82
2017-11-30T06:14:55.457Z,92.07
2017-11-30T06:17:23.050Z,89.97
2017-11-30T06:19:51.431Z,90.85
2017-11-30T06:22:19.063Z,77.87
2017-11-30T06:24:47.449Z,83.35
2017-11-30T06:27:15.027Z,93.28
2017-11-30T06:29:42.647Z,82.72
2017-11-30T06:32:10.346Z,95.12
2017-11-30T06:34:37.984Z,110.20
2017-11-30T06:37:06.353Z,102.28
2017-11-30T06:39:34.030Z,107.20
2017-11-30T06:42:01.680Z,108.18
2017-11-30T06:44:29.277Z,115.40
2017-11-30T06:46:57.652Z,117.70
2017-11-30T06:49:25.311Z,112.53
2017-11-30T06:51:52.961Z,119.07
2017-11-30T06:54:20.553Z,97.95
2017-11-30T06:56:48.199Z,108.87
2017-11-30T06:59:15.804Z,112.32
2017-11-30T07:01:43.420Z,98.00
2017-11-30T07:04:11.831Z,166.23
2017-11-30T07:06:39.412Z,166.40
2017-11-30T07:09:07.060Z,102.70
2017-11-30T07:11:34.719Z,99.00
2017-11-30T07:14:02.390Z,110.80
2017-11-30T07:16:30.038Z,110.50
2017-11-30T07:18:57.692Z,115.40
2017-11-30T07:21:25.396Z,112.00
2017-11-30T07:23:53.009Z,107.85
2017-11-30T07:26:24.103Z,114.32
2017-11-30T07:28:51.704Z,124.82
2017-11-30T07:31:19.324Z,117.07
2017-11-30T07:33:48.061Z,107.87
2017-11-30T07:36:15.989Z,127.22
2017-11-30T07:38:43.704Z,123.55
2017-11-30T07:41:11.339Z,138.62
2017-11-30T07:43:39.793Z,126.03
2017-11-30T07:46:07.430Z,126.87
2017-11-30T07:48:35.052Z,119.15
2017-11-30T07:51:02.713Z,114.80
2017-11-30T07:53:30.332Z,118.10
2017-11-30T07:55:57.943Z,105.05
2017-11-30T07:58:25.600Z,136.30
2017-11-30T08:00:53.982Z,136.32
2017-11-30T08:03:21.592Z,133.12
2017-11-30T08:05:49.261Z,162.60
2017-11-30T08:08:16.917Z,120.75
2017-11-30T08:10:44.496Z,125.93
2017-11-30T08:13:12.907Z,123.97
2017-11-30T08:15:40.531Z,151.98
2017-11-30T08:18:08.920Z,165.85
2017-11-30T08:20:36.644Z,137.50
2017-11-30T08:23:04.756Z,151.25
2017-11-30T08:25:32.406Z,183.93
2017-11-30T08:28:00.825Z,165.27
2017-11-30T08:30:28.487Z,161.43
2017-11-30T08:32:56.080Z,171.18
2017-11-30T08:35:23.688Z,163.55
2017-11-30T08:37:52.171Z,163.45
2017-11-30T08:40:19.805Z,155.05
2017-11-30T08:42:47.508Z,173.57
2017-11-30T08:45:15.125Z,155.12
2017-11-30T08:47:42.793Z,142.10
2017-11-30T08:50:10.425Z,136.43
2017-11-30T08:52:38.595Z,157.73
2017-11-30T08:55:06.396Z,127.72
2017-11-30T08:57:33.985Z,128.18
2017-11-30T09:00:02.416Z,130.73
2017-11-30T09:02:30.055Z,123.13
2017-11-30T09:04:57.999Z,114.70
2017-11-30T09:07:25.627Z,138.65
2017-11-30T09:09:53.298Z,101.18
2017-11-30T09:12:21.773Z,111.88
2017-11-30T09:14:50.144Z,113.95
2017-11-30T09:17:17.780Z,118.10
2017-11-30T09:19:45.414Z,118.10
2017-11-30T09:22:13.001Z,121.53
2017-11-30T09:24:40.645Z,108.68
2017-11-30T09:27:08.266Z,103.47
2017-11-30T09:29:35.854Z,87.00
2017-11-30T09:32:03.457Z,94.35
2017-11-30T09:34:31.085Z,93.37
2017-11-30T09:36:58.713Z,73.18
2017-11-30T09:39:27.079Z,87.57
2017-11-30T09:41:54.687Z,78.97
2017-11-30T09:44:22.356Z,83.20
2017-11-30T09:46:50.140Z,83.50
2017-11-30T09:49:17.799Z,73.95
2017-11-30T09:51:45.426Z,73.47
2017-11-30T09:54:13.027Z,74.62
2017-11-30T09:56:40.821Z,73.12
2017-11-30T09:59:08.485Z,59.13
2017-11-30T10:01:36.167Z,63.45
2017-11-30T10:04:03.805Z,66.43
2017-11-30T10:06:31.495Z,57.05
2017-11-30T10:08:59.180Z,59.80
2017-11-30T10:11:26.828Z,67.82
2017-11-30T10:13:54.452Z,65.75
2017-11-30T10:16:22.845Z,61.88
2017-11-30T10:18:51.220Z,68.10
2017-11-30T10:21:19.626Z,64.53
2017-11-30T10:23:47.244Z,62.97
2017-11-30T10:26:15.737Z,63.85
2017-11-30T10:28:43.314Z,71.80
2017-11-30T10:31:10.972Z,72.93
2017-11-30T10:33:39.286Z,79.85
2017-11-30T10:36:06.873Z,74.85
2017-11-30T10:38:34.493Z,83.43
2017-11-30T10:41:02.933Z,66.12
2017-11-30T10:43:30.561Z,79.07
2017-11-30T10:45:59.040Z,88.40
2017-11-30T10:48:26.660Z,73.35
2017-11-30T10:50:54.574Z,100.15
2017-11-30T10:53:22.983Z,75.62
2017-11-30T10:55:50.644Z,81.32
2017-11-30T10:58:18.240Z,65.62
2017-11-30T11:00:45.895Z,104.63
2017-11-30T11:03:13.542Z,70.78
2017-11-30T11:05:41.153Z,71.65
2017-11-30T11:08:09.604Z,70.47
2017-11-30T11:10:37.179Z,60.83
2017-11-30T11:13:05.553Z,68.30
2017-11-30T11:15:33.683Z,52.88
2017-11-30T11:18:01.355Z,59.42
2017-11-30T11:20:28.985Z,63.80
2017-11-30T11:22:56.537Z,53.90
2017-11-30T11:25:24.243Z,56.37
2017-11-30T11:27:51.932Z,45.58
2017-11-30T11:30:20.372Z,49.22
2017-11-30T11:32:48.429Z,53.25
2017-11-30T11:35:16.001Z,40.92
2017-11-30T11:37:43.638Z,44.10
2017-11-30T11:40:11.256Z,31.98
2017-11-30T11:42:38.831Z,33.25
2017-11-30T11:45:06.468Z,25.20
2017-11-30T11:47:34.078Z,29.83
2017-11-30T11:50:01.665Z,20.48
2017-11-30T11:52:30.055Z,23.40
2017-11-30T11:54:57.674Z,23.35
2017-11-30T11:57:25.286Z,23.50
2017-11-30T11:59:52.910Z,30.20
2017-11-30T12:02:21.318Z,23.77
2017-11-30T12:04:49.706Z,23.85
2017-11-30T12:07:18.096Z,28.55
2017-11-30T12:09:45.682Z,30.02
2017-11-30T12:12:13.242Z,25.70
2017-11-30T12:14:40.829Z,30.75
2017-11-30T12:17:08.424Z,29.33
2017-11-30T12:19:36.859Z,28.80
2017-11-30T12:22:04.459Z,25.15
2017-11-30T12:24:32.256Z,19.00
2017-11-30T12:26:59.869Z,29.33
2017-11-30T12:29:27.467Z,26.15
2017-11-30T12:31:55.057Z,24.10
2017-11-30T12:34:22.687Z,28.17
2017-11-30T12:36:51.113Z,22.75
2017-11-30T12:39:19.195Z,23.80
2017-11-30T12:41:47.572Z,25.30
2017-11-30T12:44:15.982Z,14.30
2017-11-30T12:46:43.600Z,21.98
2017-11-30T12:49:11.974Z,19.37
2017-11-30T12:51:39.633Z,17.12
2017-11-30T12:54:08.095Z,14.60
2017-11-30T12:56:35.704Z,12.70
2017-11-30T12:59:04.098Z,13.75
2017-11-30T13:01:31.963Z,17.77
2017-11-30T13:04:00.224Z,16.80
2017-11-30T13:06:27.854Z,13.52
2017-11-30T13:08:55.500Z,15.48
2017-11-30T13:11:23.920Z,18.12
2017-11-30T13:13:51.629Z,16.33
2017-11-30T13:16:19.302Z,26.27
2017-11-30T13:18:47.771Z,15.43
2017-11-30T13:21:16.225Z,21.83
2017-11-30T13:23:43.836Z,20.50
2017-11-30T13:26:12.190Z,22.77
2017-11-30T13:28:39.814Z,27.80
2017-11-30T13:31:07.427Z,21.48
2017-11-30T13:33:36.692Z,22.58
2017-11-30T13:36:04.292Z,24.02
2017-11-30T13:38:32.671Z,22.87
2017-11-30T13:41:01.090Z,24.98
2017-11-30T13:43:28.686Z,21.00
2017-11-30T13:45:56.310Z,25.23
2017-11-30T13:48:23.931Z,17.80
2017-11-30T13:50:52.322Z,19.83
2017-11-30T13:53:19.898Z,26.90
2017-11-30T13:55:47.501Z,23.27
2017-11-30T13:58:21.043Z,23.55
2017-11-30T14:00:48.646Z,26.00
2017-11-30T14:03:17.117Z,17.05
2017-11-30T14:05:45.487Z,21.58
2017-11-30T14:08:13.932Z,26.62
2017-11-30T14:10:41.541Z,21.65
2017-11-30T14:13:09.117Z,17.50
2017-11-30T14:15:37.078Z,26.12
2017-11-30T14:18:04.741Z,24.80
2017-11-30T14:20:32.415Z,27.67
2017-11-30T14:23:00.949Z,25.45
2017-11-30T14:25:28.625Z,19.02
2017-11-30T14:27:57.017Z,22.08
2017-11-30T14:30:24.664Z,25.42
2017-11-30T14:32:53.009Z,18.45
2017-11-30T14:35:20.623Z,17.92
2017-11-30T14:37:48.236Z,28.27
2017-11-30T14:40:16.671Z,24.23
2017-11-30T14:42:44.300Z,18.83
2017-11-30T14:45:12.313Z,22.30
2017-11-30T14:47:39.940Z,25.92
2017-11-30T14:50:08.340Z,25.90
2017-11-30T14:52:36.044Z,25.75
2017-11-30T14:55:03.758Z,29.45
2017-11-30T14:57:31.388Z,32.42
2017-11-30T14:59:59.076Z,31.73
2017-11-30T15:02:27.457Z,33.38
2017-11-30T15:04:55.059Z,31.73
2017-11-30T15:07:22.663Z,25.42
2017-11-30T15:09:50.299Z,38.08
2017-11-30T15:12:18.092Z,40.70
2017-11-30T15:14:45.681Z,32.30
2017-11-30T15:17:13.384Z,30.98
2017-11-30T15:19:41.045Z,41.20
2017-11-30T15:22:08.639Z,33.47
2017-11-30T15:24:36.351Z,35.85
2017-11-30T15:27:04.059Z,32.60
2017-11-30T15:29:31.636Z,29.80
2017-11-30T15:31:59.227Z,25.55
2017-11-30T15:34:26.799Z,30.37
2017-11-30T15:36:54.434Z,25.37
2017-11-30T15:39:22.017Z,24.98
2017-11-30T15:41:49.568Z,26.30
2017-11-30T15:44:17.158Z,34.10
2017-11-30T15:46:44.855Z,23.00
2017-11-30T15:49:13.221Z,30.67
2017-11-30T15:51:40.819Z,22.75
2017-11-30T15:54:08.368Z,21.98
2017-11-30T15:56:35.990Z,18.40
2017-11-30T15:59:03.601Z,24.40
2017-11-30T16:01:31.234Z,23.62
2017-11-30T16:04:00.305Z,20.35
2017-11-30T16:06:27.915Z,28.23
2017-11-30T16:08:55.567Z,22.35
2017-11-30T16:11:23.193Z,25.10
2017-11-30T16:13:51.618Z,24.67
2017-11-30T16:16:19.187Z,28.75
2017-11-30T16:18:46.780Z,22.13
2017-11-30T16:21:14.734Z,22.55
2017-11-30T16:23:42.617Z,25.88
2017-11-30T16:26:10.222Z,21.95
2017-11-30T16:28:37.810Z,24.80
2017-11-30T16:31:05.432Z,29.87
2017-11-30T16:33:33.845Z,23.85
2017-11-30T16:36:01.536Z,16.00
2017-11-30T16:38:29.121Z,16.00
2017-11-30T16:40:56.743Z,8.65
2017-11-30T16:43:24.358Z,9.55
2017-11-30T16:45:51.943Z,8.25
2017-11-30T16:48:19.535Z,5.97
2017-11-30T16:50:47.147Z,9.52
2017-11-30T16:53:14.802Z,10.10
2017-11-30T16:55:42.396Z,4.00
2017-11-30T16:58:09.981Z,5.57
2017-11-30T17:00:38.473Z,5.07
2017-11-30T17:03:06.719Z,6.10
2017-11-30T17:05:34.308Z,6.25
2017-11-30T17:08:02.819Z,5.75
2017-11-30T17:10:30.389Z,4.72
2017-11-30T17:12:58.075Z,6.28
2017-11-30T17:15:25.743Z,5.15
2017-11-30T17:17:53.363Z,4.97
2017-11-30T17:20:21.071Z,6.45
2017-11-30T17:22:48.644Z,5.75
2017-11-30T17:25:17.077Z,5.45
2017-11-30T17:27:44.699Z,7.00
2017-11-30T17:30:12.355Z,5.40
2017-11-30T17:32:40.691Z,12.30
2017-11-30T17:35:08.312Z,6.53
2017-11-30T17:37:36.001Z,4.20
2017-11-30T17:40:03.589Z,5.65
2017-11-30T17:42:31.989Z,6.75
2017-11-30T17:44:59.605Z,9.60
2017-11-30T17:47:27.188Z,6.37
2017-11-30T17:49:55.773Z,5.93
2017-11-30T17:52:24.118Z,4.50
2017-11-30T17:54:51.775Z,9.30
2017-11-30T17:57:19.725Z,8.68
2017-11-30T17:59:47.377Z,8.48
2017-11-30T18:02:15.140Z,8.35
2017-11-30T18:04:42.848Z,13.40
2017-11-30T18:07:10.642Z,18.77
2017-11-30T18:09:38.334Z,15.65
2017-11-30T18:12:06.397Z,14.43
2017-11-30T18:14:34.039Z,16.00
2017-11-30T18:17:01.804Z,21.85
2017-11-30T18:19:29.493Z,21.55
2017-11-30T18:21:58.447Z,28.42
2017-11-30T18:24:26.093Z,17.73
2017-11-30T18:26:54.516Z,23.87
2017-11-30T18:29:22.198Z,22.85
2017-11-30T18:31:49.813Z,22.33
2017-11-30T18:34:18.319Z,26.65
2017-11-30T18:36:46.068Z,23.67
2017-11-30T18:39:13.730Z,29.33
2017-11-30T18:41:41.480Z,53.83
2017-11-30T18:44:09.883Z,42.50
2017-11-30T18:46:37.645Z,64.75
2017-11-30T18:49:05.401Z,117.62
2017-11-30T18:51:34.500Z,90.72
2017-11-30T18:54:02.765Z,49.65
2017-11-30T18:56:30.430Z,58.28
2017-11-30T18:58:58.155Z,41.03
2017-11-30T19:01:25.849Z,40.00
2017-11-30T19:03:53.577Z,42.42
2017-11-30T19:06:21.999Z,36.42
2017-11-30T19:08:49.691Z,40.22
2017-11-30T19:11:17.362Z,23.17
2017-11-30T19:13:44.966Z,28.17
2017-11-30T19:16:12.612Z,29.70
2017-11-30T19:18:40.244Z,36.53
2017-11-30T19:21:08.025Z,29.67
2017-11-30T19:23:35.608Z,33.85
2017-11-30T19:26:05.695Z,35.78
2017-11-30T19:28:33.373Z,34.25
2017-11-30T19:31:00.971Z,41.53
2017-11-30T19:33:29.354Z,43.75
2017-11-30T19:35:56.968Z,38.92
2017-11-30T19:38:26.190Z,37.13
2017-11-30T19:40:54.527Z,38.80
2017-11-30T19:43:22.135Z,37.65
2017-11-30T19:45:50.540Z,42.83
2017-11-30T19:48:18.169Z,41.03
2017-11-30T19:50:45.758Z,45.50
2017-11-30T19:53:13.420Z,44.03
2017-11-30T19:55:41.063Z,43.10
2017-11-30T19:58:09.445Z,46.53
2017-11-30T20:00:37.824Z,54.10
2017-11-30T20:03:06.191Z,47.55
2017-11-30T20:05:33.832Z,50.22
2017-11-30T20:08:01.477Z,47.47
2017-11-30T20:10:29.169Z,49.05
2017-11-30T20:12:56.816Z,81.57
2017-11-30T20:15:24.434Z,78.62
2017-11-30T20:17:52.106Z,86.28
2017-11-30T20:20:19.732Z,76.45
2017-11-30T20:22:48.160Z,60.80
2017-11-30T20:25:15.797Z,72.10
2017-11-30T20:27:43.386Z,62.30
2017-11-30T20:30:11.013Z,93.25
2017-11-30T20:32:39.465Z,86.35
2017-11-30T20:35:07.072Z,68.12
2017-11-30T20:37:34.660Z,52.88
2017-11-30T20:40:02.337Z,54.40
2017-11-30T20:42:30.243Z,68.00
2017-11-30T20:44:57.884Z,67.80
2017-11-30T20:47:25.549Z,65.10
2017-11-30T20:49:54.053Z,64.45
2017-11-30T20:52:21.788Z,57.30
2017-11-30T20:54:49.377Z,51.83
2017-11-30T20:57:17.047Z,51.80
2017-11-30T20:59:44.760Z,56.33
2017-11-30T21:02:12.575Z,63.70
2017-11-30T21:04:40.233Z,57.62
2017-11-30T21:07:07.885Z,55.40
2017-11-30T21:09:35.486Z,57.10
2017-11-30T21:12:03.093Z,59.00
2017-11-30T21:14:30.717Z,51.33
2017-11-30T21:16:58.378Z,50.88
2017-11-30T21:19:25.966Z,58.58
2017-11-30T21:21:54.377Z,54.85
2017-11-30T21:24:21.997Z,55.67
2017-11-30T21:26:49.604Z,53.63
2017-11-30T21:29:17.308Z,51.53
2017-11-30T21:31:44.959Z,51.67
2017-11-30T21:34:12.559Z,53.80
2017-11-30T21:36:40.998Z,50.35
2017-11-30T21:39:08.653Z,53.80
2017-11-30T21:41:36.307Z,53.53
2017-11-30T21:44:03.924Z,53.50
2017-11-30T21:46:31.621Z,58.97
2017-11-30T21:48:59.273Z,55.58
2017-11-30T21:51:26.855Z,49.42
2017-11-30T21:53:54.484Z,48.83
2017-11-30T21:58:56.762Z,50.53
2017-11-30T22:01:24.599Z,55.22
2017-11-30T22:03:52.387Z,51.40
2017-11-30T22:06:20.023Z,50.38
2017-11-30T22:08:47.642Z,55.08
2017-11-30T22:11:15.249Z,50.38
2017-11-30T22:13:42.897Z,53.45
2017-11-30T22:16:10.562Z,52.65
2017-11-30T22:18:38.177Z,49.83
2017-11-30T22:21:05.859Z,57.88
2017-11-30T22:23:33.473Z,52.95
2017-11-30T22:26:01.082Z,55.40
2017-11-30T22:28:28.752Z,59.55
2017-11-30T22:30:57.250Z,61.58
2017-11-30T22:33:24.850Z,51.17
2017-11-30T22:35:52.529Z,55.63
2017-11-30T22:38:20.153Z,48.47
2017-11-30T22:40:47.769Z,56.15
2017-11-30T22:43:15.477Z,49.05
2017-11-30T22:45:43.231Z,54.80
2017-11-30T22:48:10.876Z,55.40
2017-11-30T22:50:38.560Z,61.40
2017-11-30T22:53:06.871Z,50.50
2017-11-30T22:55:34.559Z,52.50
2017-11-30T22:58:02.237Z,49.03
2017-11-30T23:00:41.779Z,55.08
2017-11-30T23:03:10.392Z,43.55
2017-11-30T23:05:38.057Z,51.72
2017-11-30T23:08:05.912Z,53.85
2017-11-30T23:10:35.299Z,49.45
2017-11-30T23:13:02.894Z,54.22
2017-11-30T23:15:30.615Z,47.20
2017-11-30T23:17:59.074Z,52.65
2017-11-30T23:20:26.721Z,55.60
2017-11-30T23:22:54.419Z,46.30
2017-11-30T23:25:22.093Z,54.13
2017-11-30T23:27:50.476Z,51.58
2017-11-30T23:30:18.918Z,55.78
2017-11-30T23:32:46.481Z,52.85
2017-11-30T23:35:14.147Z,54.25
2017-11-30T23:37:41.812Z,53.97
2017-11-30T23:40:09.543Z,50.22
2017-11-30T23:42:37.172Z,47.50
2017-11-30T23:45:05.655Z,47.70
2017-11-30T23:47:34.236Z,56.45
2017-11-30T23:50:02.659Z,54.95
2017-11-30T23:52:30.341Z,56.90
2017-11-30T23:54:57.903Z,54.80
2017-11-30T23:57:25.494Z,51.75
2017-11-30T23:59:53.819Z,51.60
